createdAt,value
2018-09-06T00:01:18.319Z,23.63
2018-09-06T00:03:46.004Z,23.50
2018-09-06T00:06:13.696Z,23.60
2018-09-06T00:08:41.335Z,28.00
2018-09-06T00:11:09.050Z,26.87
2018-09-06T00:13:36.724Z,24.77
2018-09-06T00:16:04.451Z,25.10
2018-09-06T00:18:32.466Z,24.43
2018-09-06T00:21:00.222Z,25.70
2018-09-06T00:23:27.899Z,28.00
2018-09-06T00:25:55.564Z,23.73
2018-09-06T00:28:23.221Z,24.97
2018-09-06T00:30:50.935Z,30.13
2018-09-06T00:33:19.241Z,30.97
2018-09-06T00:35:46.935Z,27.90
2018-09-06T00:38:14.597Z,29.23
2018-09-06T00:40:42.357Z,26.77
2018-09-06T00:43:09.985Z,25.47
2018-09-06T00:45:37.713Z,26.80
2018-09-06T00:48:05.439Z,27.50
2018-09-06T00:50:39.324Z,26.77
2018-09-06T00:53:07.098Z,25.07
2018-09-06T00:55:35.044Z,25.80
2018-09-06T00:58:02.816Z,23.07
2018-09-06T01:00:30.497Z,23.80
2018-09-06T01:02:58.165Z,23.27
2018-09-06T01:05:25.895Z,23.47
2018-09-06T01:07:53.551Z,23.60
2018-09-06T01:10:21.195Z,25.23
2018-09-06T01:12:48.969Z,29.47
2018-09-06T01:15:16.597Z,22.87
2018-09-06T01:17:44.360Z,26.83
2018-09-06T01:20:12.029Z,29.57
2018-09-06T01:22:39.739Z,30.63
2018-09-06T01:25:07.422Z,24.37
2018-09-06T01:27:35.099Z,23.87
2018-09-06T01:30:02.759Z,27.07
2018-09-06T01:32:30.292Z,28.77
2018-09-06T01:34:57.954Z,32.13
2018-09-06T01:37:25.646Z,26.53
2018-09-06T01:39:53.205Z,30.47
2018-09-06T01:42:20.881Z,31.90
2018-09-06T01:44:48.557Z,29.50
2018-09-06T01:47:16.096Z,31.77
2018-09-06T01:49:43.791Z,31.57
2018-09-06T01:52:11.459Z,32.00
2018-09-06T01:54:39.124Z,28.40
2018-09-06T01:57:06.800Z,29.00
2018-09-06T01:59:35.460Z,27.97
2018-09-06T02:02:03.271Z,28.77
2018-09-06T02:04:30.935Z,30.60
2018-09-06T02:06:58.488Z,25.47
2018-09-06T02:09:26.184Z,31.33
2018-09-06T02:11:53.875Z,27.73
2018-09-06T02:14:21.606Z,31.43
2018-09-06T02:16:49.356Z,27.00
2018-09-06T02:19:17.072Z,26.17
2018-09-06T02:21:44.693Z,30.17
2018-09-06T02:24:12.419Z,28.40
2018-09-06T02:26:40.082Z,28.77
2018-09-06T02:29:07.780Z,32.73
2018-09-06T02:31:35.313Z,29.17
2018-09-06T02:34:03.205Z,27.13
2018-09-06T02:36:30.907Z,26.93
2018-09-06T02:38:58.576Z,19.73
2018-09-06T02:41:26.229Z,19.20
2018-09-06T02:43:53.887Z,24.23
2018-09-06T02:46:21.536Z,22.73
2018-09-06T02:48:49.040Z,22.30
2018-09-06T02:51:17.900Z,25.33
2018-09-06T02:53:45.586Z,23.97
2018-09-06T02:56:14.004Z,21.37
2018-09-06T02:58:41.759Z,22.20
2018-09-06T03:01:09.740Z,22.50
2018-09-06T03:03:37.461Z,23.27
2018-09-06T03:06:05.433Z,24.10
2018-09-06T03:08:33.155Z,22.40
2018-09-06T03:11:04.606Z,24.53
2018-09-06T03:13:32.245Z,30.60
2018-09-06T03:15:59.919Z,23.90
2018-09-06T03:18:27.591Z,25.80
2018-09-06T03:20:55.231Z,32.30
2018-09-06T03:23:22.927Z,25.37
2018-09-06T03:25:50.591Z,28.97
2018-09-06T03:28:18.335Z,28.40
2018-09-06T03:30:46.002Z,32.57
2018-09-06T03:33:13.672Z,30.63
2018-09-06T03:35:41.330Z,26.50
2018-09-06T03:38:08.870Z,24.40
2018-09-06T03:40:36.535Z,27.27
2018-09-06T03:43:04.236Z,28.17
2018-09-06T03:45:31.887Z,24.80
2018-09-06T03:47:59.600Z,26.90
2018-09-06T03:50:27.251Z,24.93
2018-09-06T03:52:54.927Z,26.93
2018-09-06T03:55:22.656Z,22.27
2018-09-06T03:57:50.413Z,22.73
2018-09-06T04:00:18.141Z,25.43
2018-09-06T04:02:45.816Z,25.70
2018-09-06T04:05:13.526Z,23.77
2018-09-06T04:07:41.190Z,26.00
2018-09-06T04:10:08.866Z,24.67
2018-09-06T04:12:36.562Z,21.20
2018-09-06T04:15:04.371Z,26.53
2018-09-06T04:17:31.947Z,26.77
2018-09-06T04:19:59.507Z,27.43
2018-09-06T04:22:27.198Z,24.60
2018-09-06T04:24:54.872Z,26.53
2018-09-06T04:27:22.529Z,25.43
2018-09-06T04:29:50.178Z,28.57
2018-09-06T04:32:17.852Z,21.60
2018-09-06T04:34:45.430Z,26.37
2018-09-06T04:37:13.100Z,23.30
2018-09-06T04:39:40.752Z,23.57
2018-09-06T04:42:08.456Z,22.50
2018-09-06T04:44:35.991Z,26.50
2018-09-06T04:47:03.695Z,26.10
2018-09-06T04:49:31.336Z,29.73
2018-09-06T04:51:59.004Z,28.20
2018-09-06T04:54:26.763Z,25.27
2018-09-06T04:56:54.467Z,29.50
2018-09-06T04:59:22.157Z,34.33
2018-09-06T05:01:50.729Z,28.53
2018-09-06T05:04:18.498Z,33.37
2018-09-06T05:06:45.985Z,32.10
2018-09-06T05:09:13.652Z,22.10
2018-09-06T05:11:41.479Z,20.93
2018-09-06T05:14:09.162Z,21.33
2018-09-06T05:16:37.199Z,23.03
2018-09-06T05:19:04.974Z,22.67
2018-09-06T05:21:32.628Z,19.43
2018-09-06T05:24:00.301Z,19.97
2018-09-06T05:26:27.826Z,20.10
2018-09-06T05:28:55.431Z,21.57
2018-09-06T05:31:23.106Z,25.43
2018-09-06T05:33:50.793Z,26.70
2018-09-06T05:36:18.518Z,34.57
2018-09-06T05:38:45.991Z,35.93
2018-09-06T05:41:13.698Z,37.83
2018-09-06T05:43:41.373Z,39.43
2018-09-06T05:46:09.832Z,38.93
2018-09-06T05:48:37.586Z,39.93
2018-09-06T05:51:05.629Z,33.67
2018-09-06T05:53:33.369Z,26.87
2018-09-06T05:56:00.847Z,26.27
2018-09-06T05:58:28.464Z,28.53
2018-09-06T06:00:56.056Z,28.80
2018-09-06T06:03:23.728Z,24.83
2018-09-06T06:05:51.469Z,27.10
2018-09-06T06:08:30.603Z,26.97
2018-09-06T06:10:58.343Z,34.47
2018-09-06T06:13:25.927Z,28.57
2018-09-06T06:15:53.643Z,33.60
2018-09-06T06:18:21.349Z,31.53
2018-09-06T06:20:49.010Z,32.50
2018-09-06T06:23:16.724Z,39.47
2018-09-06T06:25:44.253Z,37.67
2018-09-06T06:28:11.957Z,35.37
2018-09-06T06:30:39.620Z,37.83
2018-09-06T06:33:07.167Z,34.23
2018-09-06T06:35:34.813Z,34.30
2018-09-06T06:38:02.498Z,32.20
2018-09-06T06:40:30.129Z,32.87
2018-09-06T06:42:57.847Z,36.70
2018-09-06T06:45:25.503Z,38.07
2018-09-06T06:47:53.169Z,37.43
2018-09-06T06:50:21.036Z,43.70
2018-09-06T06:52:48.676Z,35.83
2018-09-06T06:55:16.375Z,40.13
2018-09-06T06:57:44.294Z,36.80
2018-09-06T07:00:12.453Z,33.47
2018-09-06T07:02:40.104Z,35.67
2018-09-06T07:05:07.838Z,38.63
2018-09-06T07:07:35.487Z,40.67
2018-09-06T07:10:03.283Z,45.43
2018-09-06T07:12:30.947Z,45.07
2018-09-06T07:14:58.492Z,39.93
2018-09-06T07:17:26.192Z,41.07
2018-09-06T07:19:54.211Z,42.70
2018-09-06T07:22:21.909Z,43.20
2018-09-06T07:24:49.669Z,44.73
2018-09-06T07:27:17.632Z,42.33
2018-09-06T07:29:45.372Z,40.00
2018-09-06T07:32:13.077Z,40.30
2018-09-06T07:34:40.739Z,39.70
2018-09-06T07:37:08.434Z,38.30
2018-09-06T07:39:36.085Z,37.30
2018-09-06T07:42:03.843Z,37.90
2018-09-06T07:44:31.513Z,33.63
2018-09-06T07:46:59.306Z,34.03
2018-09-06T07:49:26.961Z,34.73
2018-09-06T07:51:54.653Z,30.80
2018-09-06T07:54:22.331Z,33.60
2018-09-06T07:56:50.053Z,33.20
2018-09-06T07:59:17.782Z,31.33
2018-09-06T08:01:45.490Z,32.50
2018-09-06T08:04:13.193Z,30.80
2018-09-06T08:06:40.909Z,29.07
2018-09-06T08:09:10.138Z,27.07
2018-09-06T08:11:38.363Z,25.03
2018-09-06T08:14:06.078Z,25.30
2018-09-06T08:16:33.914Z,26.40
2018-09-06T08:19:01.638Z,25.27
2018-09-06T08:21:29.279Z,22.93
2018-09-06T08:23:57.025Z,24.00
2018-09-06T08:26:25.144Z,21.30
2018-09-06T08:28:52.913Z,23.00
2018-09-06T08:31:20.585Z,19.87
2018-09-06T08:33:48.358Z,21.10
2018-09-06T08:36:16.009Z,18.90
2018-09-06T08:38:43.708Z,19.60
2018-09-06T08:41:11.371Z,17.73
2018-09-06T08:43:39.118Z,16.00
2018-09-06T08:46:06.798Z,15.83
2018-09-06T08:48:34.502Z,17.67
2018-09-06T08:51:02.198Z,16.97
2018-09-06T08:53:29.924Z,16.00
2018-09-06T08:56:28.685Z,16.60
2018-09-06T08:58:56.394Z,16.10
2018-09-06T09:01:29.615Z,16.30
2018-09-06T09:03:57.368Z,16.03
2018-09-06T09:06:26.134Z,16.27
2018-09-06T09:08:53.779Z,16.97
2018-09-06T09:11:21.378Z,14.60
2018-09-06T09:13:49.120Z,16.83
2018-09-06T09:16:16.958Z,15.13
2018-09-06T09:18:44.543Z,17.03
2018-09-06T09:21:12.263Z,13.47
2018-09-06T09:23:40.044Z,13.60
2018-09-06T09:26:07.739Z,13.43
2018-09-06T09:28:35.308Z,13.90
2018-09-06T09:31:02.979Z,15.23
2018-09-06T09:33:30.594Z,14.77
2018-09-06T09:35:58.341Z,13.80
2018-09-06T09:38:25.996Z,13.40
2018-09-06T09:40:53.686Z,12.67
2018-09-06T09:43:21.491Z,11.43
2018-09-06T09:45:49.158Z,12.77
2018-09-06T09:48:16.859Z,11.90
2018-09-06T09:53:11.790Z,10.87
2018-09-06T09:55:39.555Z,11.63
2018-09-06T09:58:07.245Z,13.03
2018-09-06T10:00:36.640Z,11.05
2018-09-06T10:03:09.884Z,11.28
2018-09-06T10:05:43.110Z,10.23
2018-09-06T10:08:16.319Z,9.35
2018-09-06T10:10:44.016Z,8.00
2018-09-06T10:13:11.635Z,9.68
2018-09-06T10:15:40.252Z,10.03
2018-09-06T10:18:08.458Z,8.80
2018-09-06T10:20:36.144Z,8.75
2018-09-06T10:23:03.831Z,8.43
2018-09-06T10:25:31.505Z,8.95
2018-09-06T10:27:59.316Z,8.18
2018-09-06T10:30:27.078Z,8.68
2018-09-06T10:32:54.909Z,8.85
2018-09-06T10:35:22.727Z,8.67
2018-09-06T10:37:50.458Z,8.43
2018-09-06T10:40:18.259Z,9.03
2018-09-06T10:42:47.238Z,8.10
2018-09-06T10:45:14.948Z,8.90
2018-09-06T10:47:42.739Z,8.23
2018-09-06T10:50:10.245Z,10.83
2018-09-06T10:52:37.880Z,8.53
2018-09-06T10:55:05.556Z,8.97
2018-09-06T10:57:33.265Z,8.70
2018-09-06T11:00:00.950Z,8.13
2018-09-06T11:02:28.839Z,11.03
2018-09-06T11:04:56.609Z,8.33
2018-09-06T11:07:24.375Z,9.53
2018-09-06T11:09:52.045Z,9.23
2018-09-06T11:12:19.771Z,11.93
2018-09-06T11:14:47.324Z,9.27
2018-09-06T11:17:15.100Z,9.33
2018-09-06T11:19:42.821Z,10.23
2018-09-06T11:22:10.765Z,10.33
2018-09-06T11:24:38.226Z,9.53
2018-09-06T11:27:05.920Z,10.47
2018-09-06T11:29:33.592Z,10.30
2018-09-06T11:32:01.246Z,8.57
2018-09-06T11:34:28.950Z,9.60
2018-09-06T11:36:56.664Z,11.83
2018-09-06T11:39:24.396Z,10.90
2018-09-06T11:41:52.161Z,10.87
2018-09-06T11:44:20.005Z,10.10
2018-09-06T11:46:47.807Z,10.20
2018-09-06T11:49:15.496Z,10.97
2018-09-06T11:51:43.259Z,8.77
2018-09-06T11:54:11.249Z,8.23
2018-09-06T11:56:38.930Z,7.73
2018-09-06T11:59:06.661Z,8.70
2018-09-06T12:01:34.375Z,6.97
2018-09-06T12:04:02.280Z,7.83
2018-09-06T12:06:29.978Z,8.20
2018-09-06T12:08:57.735Z,7.77
2018-09-06T12:11:25.445Z,8.03
2018-09-06T12:13:53.154Z,6.97
2018-09-06T12:16:20.870Z,7.30
2018-09-06T12:18:48.540Z,6.63
2018-09-06T12:21:16.350Z,7.03
2018-09-06T12:23:44.076Z,7.13
2018-09-06T12:26:11.669Z,8.07
2018-09-06T12:28:39.418Z,6.70
2018-09-06T12:31:07.135Z,8.50
2018-09-06T12:33:35.028Z,6.87
2018-09-06T12:36:02.791Z,6.00
2018-09-06T12:38:30.882Z,6.67
2018-09-06T12:40:58.605Z,7.15
2018-09-06T12:43:26.409Z,6.70
2018-09-06T12:45:53.935Z,6.65
2018-09-06T12:48:21.691Z,7.60
2018-09-06T12:50:49.651Z,6.78
2018-09-06T12:53:17.380Z,6.37
2018-09-06T12:55:45.097Z,6.70
2018-09-06T12:58:12.785Z,7.03
2018-09-06T13:00:40.466Z,7.30
2018-09-06T13:03:08.111Z,7.00
2018-09-06T13:05:35.867Z,7.70
2018-09-06T13:08:03.414Z,6.60
2018-09-06T13:10:31.165Z,6.07
2018-09-06T13:12:58.867Z,7.07
2018-09-06T13:15:26.569Z,6.60
2018-09-06T13:17:54.251Z,5.00
2018-09-06T13:20:21.931Z,4.83
2018-09-06T13:22:49.570Z,5.03
2018-09-06T13:25:17.335Z,5.27
2018-09-06T13:27:44.997Z,4.83
2018-09-06T13:30:12.724Z,6.33
2018-09-06T13:32:40.359Z,5.33
2018-09-06T13:35:08.089Z,5.17
2018-09-06T13:37:35.779Z,4.97
2018-09-06T13:40:03.656Z,5.40
2018-09-06T13:42:31.341Z,5.87
2018-09-06T13:44:59.036Z,5.13
2018-09-06T13:47:26.685Z,5.77
2018-09-06T13:49:54.356Z,6.00
2018-09-06T13:52:21.912Z,4.23
2018-09-06T13:54:49.577Z,7.10
2018-09-06T13:57:17.311Z,5.67
2018-09-06T13:59:44.984Z,5.10
2018-09-06T14:02:12.714Z,5.03
2018-09-06T14:04:40.315Z,5.20
2018-09-06T14:07:08.012Z,5.20
2018-09-06T14:09:35.795Z,7.15
2018-09-06T14:12:04.216Z,6.90
2018-09-06T14:14:31.885Z,5.03
2018-09-06T14:16:59.510Z,5.30
2018-09-06T14:19:27.266Z,4.93
2018-09-06T14:21:55.043Z,5.13
2018-09-06T14:24:32.114Z,5.80
2018-09-06T14:26:59.845Z,4.83
2018-09-06T14:29:28.370Z,6.10
2018-09-06T14:31:56.037Z,5.43
2018-09-06T14:34:23.691Z,5.23
2018-09-06T14:36:51.376Z,6.13
2018-09-06T14:39:19.025Z,6.07
2018-09-06T14:41:46.716Z,5.40
2018-09-06T14:44:14.438Z,5.50
2018-09-06T14:46:42.101Z,5.90
2018-09-06T14:49:09.656Z,5.75
2018-09-06T14:51:37.307Z,5.90
2018-09-06T14:54:05.403Z,6.00
2018-09-06T14:56:33.075Z,6.37
2018-09-06T14:59:00.736Z,5.17
2018-09-06T15:01:28.438Z,5.30
2018-09-06T15:03:56.162Z,5.60
2018-09-06T15:06:23.845Z,5.67
2018-09-06T15:08:51.507Z,5.77
2018-09-06T15:11:19.162Z,6.50
2018-09-06T15:13:46.870Z,5.87
2018-09-06T15:16:14.555Z,5.30
2018-09-06T15:18:42.098Z,5.67
2018-09-06T15:21:09.688Z,6.00
2018-09-06T15:23:37.372Z,5.93
2018-09-06T15:26:05.081Z,6.20
2018-09-06T15:28:32.765Z,6.03
2018-09-06T15:31:00.493Z,7.43
2018-09-06T15:33:28.187Z,6.23
2018-09-06T15:35:55.955Z,5.60
2018-09-06T15:38:23.718Z,5.77
2018-09-06T15:40:51.261Z,5.60
2018-09-06T15:43:18.944Z,6.13
2018-09-06T15:45:46.625Z,5.70
2018-09-06T15:48:14.308Z,6.83
2018-09-06T15:50:42.006Z,5.80
2018-09-06T15:53:09.896Z,5.63
2018-09-06T15:55:37.537Z,5.40
2018-09-06T15:58:05.371Z,5.23
2018-09-06T16:00:33.046Z,5.77
2018-09-06T16:03:00.696Z,5.40
2018-09-06T16:05:28.434Z,7.50
2018-09-06T16:07:56.098Z,5.87
2018-09-06T16:10:23.814Z,5.83
2018-09-06T16:12:51.499Z,7.87
2018-09-06T16:15:19.543Z,6.03
2018-09-06T16:17:47.196Z,6.17
2018-09-06T16:20:14.933Z,6.17
2018-09-06T16:22:43.528Z,5.63
2018-09-06T16:25:11.096Z,6.87
2018-09-06T16:27:39.758Z,7.50
2018-09-06T16:30:07.540Z,6.47
2018-09-06T16:32:35.100Z,6.40
2018-09-06T16:35:02.796Z,7.03
2018-09-06T16:37:30.491Z,6.30
2018-09-06T16:39:58.185Z,9.17
2018-09-06T16:42:25.915Z,8.77
2018-09-06T16:44:53.579Z,6.90
2018-09-06T16:47:21.246Z,6.83
2018-09-06T16:49:48.800Z,6.60
2018-09-06T16:52:16.516Z,6.60
2018-09-06T16:54:44.188Z,6.60
2018-09-06T16:57:11.933Z,7.10
2018-09-06T16:59:39.632Z,7.20
2018-09-06T17:02:07.325Z,7.70
2018-09-06T17:04:35.088Z,6.50
2018-09-06T17:07:03.008Z,7.47
2018-09-06T17:09:30.717Z,7.87
2018-09-06T17:11:58.417Z,7.17
2018-09-06T17:14:26.226Z,9.73
2018-09-06T17:16:53.865Z,10.50
2018-09-06T17:19:21.572Z,9.73
2018-09-06T17:21:49.281Z,8.37
2018-09-06T17:24:17.003Z,9.57
2018-09-06T17:26:44.733Z,6.83
2018-09-06T17:29:12.438Z,8.40
2018-09-06T17:31:40.111Z,9.57
2018-09-06T17:34:07.894Z,7.83
2018-09-06T17:36:35.587Z,8.03
2018-09-06T17:39:05.407Z,8.90
2018-09-06T17:41:32.986Z,9.80
2018-09-06T17:44:00.622Z,9.43
2018-09-06T17:46:28.336Z,11.70
2018-09-06T17:48:55.902Z,10.40
2018-09-06T17:51:23.425Z,9.90
2018-09-06T17:53:51.006Z,9.87
2018-09-06T17:56:18.776Z,8.20
2018-09-06T17:58:46.463Z,8.80
2018-09-06T18:01:31.222Z,9.23
2018-09-06T18:03:59.117Z,9.90
2018-09-06T18:06:26.843Z,8.60
2018-09-06T18:08:54.621Z,10.20
2018-09-06T18:11:22.307Z,10.40
2018-09-06T18:13:50.001Z,8.63
2018-09-06T18:16:17.747Z,7.60
2018-09-06T18:18:45.497Z,8.80
2018-09-06T18:21:13.239Z,8.33
2018-09-06T18:23:40.994Z,6.80
2018-09-06T18:26:08.656Z,9.17
2018-09-06T18:28:36.363Z,6.97
2018-09-06T18:31:04.123Z,6.80
2018-09-06T18:33:47.141Z,10.77
2018-09-06T18:36:15.621Z,11.03
2018-09-06T18:38:43.864Z,8.57
2018-09-06T18:41:11.568Z,7.37
2018-09-06T18:43:39.352Z,9.73
2018-09-06T18:46:07.118Z,9.07
2018-09-06T18:48:34.696Z,8.57
2018-09-06T18:51:02.417Z,7.03
2018-09-06T18:53:30.084Z,9.13
2018-09-06T18:55:57.839Z,7.83
2018-09-06T18:58:25.628Z,11.13
2018-09-06T19:00:53.327Z,12.63
2018-09-06T19:03:21.052Z,12.97
2018-09-06T19:05:48.832Z,10.90
2018-09-06T19:08:16.643Z,15.03
2018-09-06T19:10:44.420Z,10.77
2018-09-06T19:13:12.053Z,12.73
2018-09-06T19:15:39.761Z,15.10
2018-09-06T19:18:07.647Z,10.80
2018-09-06T19:20:47.901Z,11.27
2018-09-06T19:23:16.255Z,14.40
2018-09-06T19:25:43.992Z,13.43
2018-09-06T19:28:11.837Z,11.67
2018-09-06T19:30:40.605Z,11.93
2018-09-06T19:33:08.868Z,14.90
2018-09-06T19:35:37.269Z,13.20
2018-09-06T19:38:05.063Z,14.40
2018-09-06T19:40:32.699Z,14.97
2018-09-06T19:43:01.286Z,13.43
2018-09-06T19:45:29.646Z,14.07
2018-09-06T19:47:58.057Z,19.70
2018-09-06T19:50:29.996Z,15.43
2018-09-06T19:52:58.115Z,15.77
2018-09-06T19:55:26.463Z,17.47
2018-09-06T19:57:54.684Z,12.67
2018-09-06T20:00:23.355Z,13.87
2018-09-06T20:02:51.146Z,16.67
2018-09-06T20:05:19.407Z,15.13
2018-09-06T20:07:47.940Z,12.83
2018-09-06T20:10:16.555Z,13.23
2018-09-06T20:12:45.272Z,12.67
2018-09-06T20:15:12.964Z,13.10
2018-09-06T20:17:41.273Z,12.27
2018-09-06T20:20:10.257Z,13.73
2018-09-06T20:22:37.962Z,14.67
2018-09-06T20:25:05.699Z,15.30
2018-09-06T20:27:33.448Z,15.37
2018-09-06T20:30:01.234Z,15.43
2018-09-06T20:32:29.358Z,13.50
2018-09-06T20:34:58.049Z,12.83
2018-09-06T20:37:26.229Z,16.97
2018-09-06T20:39:53.978Z,14.50
2018-09-06T20:42:21.708Z,15.50
2018-09-06T20:44:49.847Z,15.13
2018-09-06T20:47:17.615Z,15.00
2018-09-06T20:49:45.952Z,15.17
2018-09-06T20:52:15.223Z,15.83
2018-09-06T20:54:42.937Z,19.33
2018-09-06T20:57:10.505Z,15.47
2018-09-06T20:59:39.223Z,14.67
2018-09-06T21:02:12.449Z,18.90
2018-09-06T21:04:41.092Z,14.23
2018-09-06T21:07:09.072Z,14.03
2018-09-06T21:09:36.769Z,13.87
2018-09-06T21:12:04.858Z,12.00
2018-09-06T21:14:33.221Z,12.10
2018-09-06T21:17:01.603Z,13.87
2018-09-06T21:19:30.116Z,12.93
2018-09-06T21:21:58.312Z,12.53
2018-09-06T21:24:27.122Z,13.00
2018-09-06T21:26:54.826Z,12.50
2018-09-06T21:29:22.543Z,14.17
2018-09-06T21:31:50.816Z,15.93
2018-09-06T21:34:18.570Z,16.83
2018-09-06T21:36:47.254Z,19.37
2018-09-06T21:39:14.812Z,16.17
2018-09-06T21:41:42.870Z,18.97
2018-09-06T21:44:11.241Z,18.87
2018-09-06T21:46:40.020Z,16.13
2018-09-06T21:49:08.018Z,17.80
2018-09-06T21:51:35.888Z,16.30
2018-09-06T21:54:03.633Z,14.47
2018-09-06T21:56:31.307Z,17.77
2018-09-06T21:58:58.897Z,19.30
2018-09-06T22:01:26.597Z,17.67
2018-09-06T22:04:00.757Z,15.50
2018-09-06T22:06:28.537Z,16.63
2018-09-06T22:08:56.257Z,15.43
2018-09-06T22:11:23.957Z,14.23
2018-09-06T22:13:51.717Z,17.87
2018-09-06T22:16:19.412Z,16.73
2018-09-06T22:18:47.132Z,17.57
2018-09-06T22:21:14.684Z,16.57
2018-09-06T22:23:42.534Z,15.13
2018-09-06T22:26:10.121Z,19.03
2018-09-06T22:28:37.757Z,18.77
2018-09-06T22:31:05.675Z,17.00
2018-09-06T22:33:33.323Z,18.13
2018-09-06T22:36:00.906Z,17.17
2018-09-06T22:38:28.598Z,16.73
2018-09-06T22:40:56.282Z,21.00
2018-09-06T22:43:23.810Z,18.63
2018-09-06T22:45:51.507Z,22.47
2018-09-06T22:48:19.234Z,16.13
2018-09-06T22:50:46.903Z,17.77
2018-09-06T22:53:14.535Z,20.97
2018-09-06T22:55:42.247Z,24.00
2018-09-06T22:58:09.890Z,18.97
2018-09-06T23:00:37.618Z,15.23
2018-09-06T23:03:13.493Z,15.30
2018-09-06T23:05:41.262Z,18.17
2018-09-06T23:08:08.948Z,18.33
2018-09-06T23:10:36.488Z,18.97
2018-09-06T23:13:04.243Z,18.97
2018-09-06T23:15:31.942Z,19.30
2018-09-06T23:17:59.684Z,18.37
2018-09-06T23:20:27.348Z,21.07
2018-09-06T23:22:55.053Z,17.27
2018-09-06T23:25:22.708Z,19.33
2018-09-06T23:27:50.400Z,18.27
2018-09-06T23:30:18.059Z,20.97
2018-09-06T23:32:45.752Z,18.80
2018-09-06T23:35:13.370Z,18.43
2018-09-06T23:37:41.068Z,25.93
2018-09-06T23:40:08.737Z,22.03
2018-09-06T23:42:36.413Z,18.43
2018-09-06T23:45:04.131Z,27.33
2018-09-06T23:47:31.863Z,24.10
2018-09-06T23:49:59.496Z,22.33
2018-09-06T23:52:27.113Z,20.00
2018-09-06T23:54:54.789Z,26.15
2018-09-06T23:57:22.443Z,20.90
2018-09-06T23:59:50.178Z,18.93
